createdAt,value
2022-08-25T00:01:50.845Z,17.78
2022-08-25T00:04:20.937Z,17.73
2022-08-25T00:06:50.198Z,17.69
2022-08-25T00:09:21.930Z,17.65
2022-08-25T00:11:50.743Z,17.59
2022-08-25T00:14:22.559Z,17.53
2022-08-25T00:16:50.543Z,17.44
2022-08-25T00:19:21.225Z,17.40
2022-08-25T00:21:49.509Z,17.32
2022-08-25T00:24:19.841Z,17.27
2022-08-25T00:26:50.662Z,17.21
2022-08-25T00:29:20.513Z,17.17
2022-08-25T00:31:48.866Z,17.13
2022-08-25T00:34:23.002Z,17.10
2022-08-25T00:36:51.562Z,17.06
2022-08-25T00:39:21.865Z,17.02
2022-08-25T00:41:51.615Z,16.97
2022-08-25T00:44:21.154Z,16.93
2022-08-25T00:46:51.629Z,16.90
2022-08-25T00:49:25.711Z,16.86
2022-08-25T00:51:58.278Z,16.83
2022-08-25T00:54:28.101Z,16.80
2022-08-25T00:56:57.394Z,16.77
2022-08-25T00:59:27.577Z,16.76
2022-08-25T01:01:56.270Z,16.73
2022-08-25T01:04:24.453Z,16.70
2022-08-25T01:06:53.270Z,16.66
2022-08-25T01:09:21.408Z,16.62
2022-08-25T01:11:49.740Z,16.58
2022-08-25T01:14:21.170Z,16.54
2022-08-25T01:16:51.202Z,16.51
2022-08-25T01:19:24.526Z,16.44
2022-08-25T01:21:55.014Z,16.40
2022-08-25T01:24:31.403Z,16.35
2022-08-25T01:26:59.576Z,16.34
2022-08-25T01:29:27.710Z,16.33
2022-08-25T01:31:58.770Z,16.30
2022-08-25T01:34:28.017Z,16.29
2022-08-25T01:36:58.530Z,16.31
2022-08-25T01:39:29.110Z,16.33
2022-08-25T01:42:10.607Z,16.31
2022-08-25T01:44:40.293Z,16.33
2022-08-25T01:47:09.077Z,16.32
2022-08-25T01:49:37.104Z,16.32
2022-08-25T01:52:13.566Z,16.29
2022-08-25T01:54:41.430Z,16.29
2022-08-25T01:57:09.412Z,16.28
2022-08-25T01:59:37.474Z,16.22
2022-08-25T02:02:06.069Z,16.21
2022-08-25T02:04:35.063Z,16.18
2022-08-25T02:07:05.560Z,16.16
2022-08-25T02:09:35.883Z,16.11
2022-08-25T02:12:04.730Z,16.07
2022-08-25T02:14:32.609Z,16.02
2022-08-25T02:17:00.576Z,15.97
2022-08-25T02:19:30.944Z,15.93
2022-08-25T02:21:59.785Z,15.89
2022-08-25T02:24:27.731Z,15.86
2022-08-25T02:26:58.023Z,15.82
2022-08-25T02:29:26.315Z,15.78
2022-08-25T02:31:54.394Z,15.73
2022-08-25T02:34:22.375Z,15.69
2022-08-25T02:36:50.200Z,15.65
2022-08-25T02:39:21.042Z,15.62
2022-08-25T02:41:49.080Z,15.59
2022-08-25T02:44:18.744Z,15.57
2022-08-25T02:46:46.621Z,15.55
2022-08-25T02:49:14.411Z,15.52
2022-08-25T02:51:42.917Z,15.51
2022-08-25T02:54:10.779Z,15.48
2022-08-25T02:56:38.853Z,15.47
2022-08-25T02:59:06.925Z,15.45
2022-08-25T03:01:36.370Z,15.42
2022-08-25T03:04:04.699Z,15.38
2022-08-25T03:06:32.677Z,15.35
2022-08-25T03:09:01.384Z,15.32
2022-08-25T03:11:29.636Z,15.29
2022-08-25T03:13:57.549Z,15.26
2022-08-25T03:16:27.634Z,15.23
2022-08-25T03:18:58.313Z,15.21
2022-08-25T03:21:26.840Z,15.18
2022-08-25T03:23:54.889Z,15.16
2022-08-25T03:26:40.446Z,15.14
2022-08-25T03:29:08.999Z,15.13
2022-08-25T03:31:37.235Z,15.10
2022-08-25T03:34:06.997Z,15.09
2022-08-25T03:36:34.856Z,15.05
2022-08-25T03:39:02.697Z,15.03
2022-08-25T03:41:33.428Z,15.00
2022-08-25T03:44:01.968Z,14.99
2022-08-25T03:46:32.285Z,14.95
2022-08-25T03:49:02.079Z,14.91
2022-08-25T03:51:34.076Z,14.87
2022-08-25T03:54:03.487Z,14.84
2022-08-25T03:56:31.755Z,14.78
2022-08-25T03:58:59.893Z,14.75
2022-08-25T04:01:28.033Z,14.72
2022-08-25T04:03:56.345Z,14.68
2022-08-25T04:06:24.545Z,14.65
2022-08-25T04:08:53.819Z,14.64
2022-08-25T04:11:24.241Z,14.65
2022-08-25T04:13:53.978Z,14.64
2022-08-25T04:16:24.985Z,14.63
2022-08-25T04:18:55.052Z,14.59
2022-08-25T04:21:24.394Z,14.58
2022-08-25T04:23:55.455Z,14.55
2022-08-25T04:26:25.244Z,14.53
2022-08-25T04:28:53.108Z,14.50
2022-08-25T04:31:22.750Z,14.48
2022-08-25T04:33:50.778Z,14.48
2022-08-25T04:36:20.095Z,14.47
2022-08-25T04:38:49.476Z,14.50
2022-08-25T04:41:21.292Z,14.51
2022-08-25T04:43:49.220Z,14.54
2022-08-25T04:46:20.799Z,14.55
2022-08-25T04:48:49.808Z,14.57
2022-08-25T04:51:19.755Z,14.56
2022-08-25T04:53:48.026Z,14.57
2022-08-25T04:56:19.841Z,14.59
2022-08-25T04:58:47.876Z,14.59
2022-08-25T05:01:17.806Z,14.59
2022-08-25T05:03:46.588Z,14.60
2022-08-25T05:06:16.354Z,14.61
2022-08-25T05:08:45.693Z,14.60
2022-08-25T05:11:17.346Z,14.61
2022-08-25T05:13:51.387Z,14.62
2022-08-25T05:16:21.386Z,14.63
2022-08-25T05:18:49.638Z,14.63
2022-08-25T05:21:20.067Z,14.67
2022-08-25T05:23:48.919Z,14.68
2022-08-25T05:26:20.583Z,14.70
2022-08-25T05:28:51.752Z,14.74
2022-08-25T05:31:21.341Z,14.78
2022-08-25T05:33:49.555Z,14.83
2022-08-25T05:36:19.743Z,14.87
2022-08-25T05:38:48.003Z,14.92
2022-08-25T05:41:17.991Z,14.96
2022-08-25T05:43:48.070Z,15.02
2022-08-25T05:46:19.610Z,15.07
2022-08-25T05:48:47.543Z,15.14
2022-08-25T05:51:16.056Z,15.19
2022-08-25T05:53:45.614Z,15.25
2022-08-25T05:56:14.251Z,15.31
2022-08-25T05:58:43.215Z,15.38
2022-08-25T06:01:36.935Z,15.44
2022-08-25T06:04:06.476Z,15.52
2022-08-25T06:06:34.562Z,15.57
2022-08-25T06:09:06.828Z,15.62
2022-08-25T06:11:34.696Z,15.69
2022-08-25T06:14:02.666Z,15.77
2022-08-25T06:16:31.107Z,15.83
2022-08-25T06:18:59.045Z,15.89
2022-08-25T06:21:29.020Z,15.96
2022-08-25T06:23:57.141Z,16.02
2022-08-25T06:26:25.346Z,16.10
2022-08-25T06:28:53.925Z,16.17
2022-08-25T06:31:23.102Z,16.23
2022-08-25T06:33:52.031Z,16.33
2022-08-25T06:36:20.288Z,16.38
2022-08-25T06:38:49.533Z,16.47
2022-08-25T06:41:17.573Z,16.56
2022-08-25T06:43:49.925Z,16.64
2022-08-25T06:46:21.903Z,16.72
2022-08-25T06:48:58.332Z,16.81
2022-08-25T06:51:27.561Z,16.91
2022-08-25T06:53:56.796Z,16.99
2022-08-25T06:56:24.657Z,17.08
2022-08-25T06:58:54.514Z,17.19
2022-08-25T07:01:27.089Z,17.29
2022-08-25T07:04:00.240Z,17.37
2022-08-25T07:06:31.002Z,17.48
2022-08-25T07:09:01.017Z,17.57
2022-08-25T07:11:29.322Z,17.65
2022-08-25T07:13:57.202Z,17.74
2022-08-25T07:16:29.878Z,17.87
2022-08-25T07:19:00.170Z,17.98
2022-08-25T07:21:33.385Z,18.07
2022-08-25T07:24:05.313Z,18.15
2022-08-25T07:26:38.568Z,18.25
2022-08-25T07:29:08.024Z,18.39
2022-08-25T07:31:36.427Z,18.48
2022-08-25T07:34:23.353Z,18.55
2022-08-25T07:36:51.602Z,18.66
2022-08-25T07:39:22.185Z,18.76
2022-08-25T07:41:51.951Z,18.85
2022-08-25T07:44:21.816Z,18.94
2022-08-25T07:46:50.886Z,19.05
2022-08-25T07:49:23.339Z,19.17
2022-08-25T07:52:03.945Z,19.27
2022-08-25T07:54:35.613Z,19.41
2022-08-25T07:57:07.798Z,19.54
2022-08-25T07:59:39.339Z,19.69
2022-08-25T08:02:08.843Z,19.83
2022-08-25T08:04:37.878Z,19.96
2022-08-25T08:07:06.699Z,20.11
2022-08-25T08:09:41.442Z,20.29
2022-08-25T08:12:10.640Z,20.46
2022-08-25T08:14:39.595Z,20.58
2022-08-25T08:17:13.653Z,20.74
2022-08-25T08:19:44.863Z,20.90
2022-08-25T08:22:19.018Z,21.05
2022-08-25T08:24:54.676Z,21.18
2022-08-25T08:27:25.194Z,21.34
2022-08-25T08:29:53.706Z,21.43
2022-08-25T08:32:23.834Z,21.57
2022-08-25T08:34:58.517Z,21.69
2022-08-25T08:37:26.419Z,21.87
2022-08-25T08:39:57.206Z,22.03
2022-08-25T08:42:42.983Z,22.21
2022-08-25T08:45:27.234Z,22.36
2022-08-25T08:48:11.861Z,22.50
2022-08-25T08:50:50.580Z,22.66
2022-08-25T08:53:26.058Z,22.81
2022-08-25T08:55:58.695Z,22.88
2022-08-25T08:58:34.146Z,22.97
2022-08-25T09:01:03.044Z,23.03
2022-08-25T09:03:37.262Z,23.09
2022-08-25T09:06:12.652Z,23.19
2022-08-25T09:08:44.962Z,23.30
2022-08-25T09:11:24.300Z,23.51
2022-08-25T09:14:20.590Z,23.72
2022-08-25T09:16:56.484Z,23.94
2022-08-25T09:19:47.192Z,24.11
2022-08-25T09:22:35.763Z,24.25
2022-08-25T09:25:12.231Z,24.37
2022-08-25T09:27:53.442Z,24.53
2022-08-25T09:30:25.091Z,24.62
2022-08-25T09:33:03.795Z,24.82
2022-08-25T09:35:36.896Z,25.05
2022-08-25T09:38:08.867Z,25.27
2022-08-25T09:40:40.250Z,25.51
2022-08-25T09:43:21.874Z,25.69
2022-08-25T09:45:57.361Z,25.76
2022-08-25T09:48:28.703Z,25.85
2022-08-25T09:51:00.923Z,25.92
2022-08-25T09:53:33.960Z,26.04
2022-08-25T09:56:06.741Z,26.14
2022-08-25T09:58:36.289Z,26.30
2022-08-25T10:01:13.152Z,26.39
2022-08-25T10:03:58.701Z,26.45
2022-08-25T10:06:28.379Z,26.44
2022-08-25T10:09:02.202Z,26.43
2022-08-25T10:11:41.639Z,26.57
2022-08-25T10:14:21.315Z,26.68
2022-08-25T10:16:50.291Z,26.81
2022-08-25T10:19:26.609Z,26.89
2022-08-25T10:22:06.077Z,26.93
2022-08-25T10:24:34.959Z,27.00
2022-08-25T10:27:15.425Z,27.13
2022-08-25T10:30:00.086Z,27.14
2022-08-25T10:32:41.066Z,27.17
2022-08-25T10:35:14.783Z,27.18
2022-08-25T10:37:59.901Z,27.20
2022-08-25T10:40:37.228Z,27.38
2022-08-25T10:43:09.125Z,27.58
2022-08-25T10:45:43.873Z,27.74
2022-08-25T10:48:27.329Z,27.74
2022-08-25T10:51:01.495Z,27.65
2022-08-25T10:53:36.089Z,27.55
2022-08-25T10:56:13.793Z,27.57
2022-08-25T10:59:11.001Z,27.71
2022-08-25T11:01:57.155Z,27.87
2022-08-25T11:04:30.190Z,28.02
2022-08-25T11:07:04.313Z,28.16
2022-08-25T11:09:36.392Z,28.28
2022-08-25T11:12:09.881Z,28.36
2022-08-25T11:14:42.953Z,28.47
2022-08-25T11:17:17.614Z,28.61
2022-08-25T11:19:48.959Z,28.56
2022-08-25T11:22:24.557Z,28.66
2022-08-25T11:25:07.518Z,28.70
2022-08-25T11:27:42.661Z,28.83
2022-08-25T11:30:16.692Z,28.99
2022-08-25T11:32:50.585Z,29.00
2022-08-25T11:35:26.543Z,29.08
2022-08-25T11:38:10.749Z,29.22
2022-08-25T11:41:01.090Z,29.35
2022-08-25T11:43:48.040Z,29.45
2022-08-25T11:46:31.037Z,29.48
2022-08-25T11:49:15.172Z,29.53
2022-08-25T11:51:46.795Z,29.61
2022-08-25T11:54:24.885Z,29.63
2022-08-25T11:56:59.386Z,29.68
2022-08-25T12:00:04.679Z,29.80
2022-08-25T12:02:37.751Z,29.95
2022-08-25T12:05:09.935Z,30.08
2022-08-25T12:08:34.343Z,30.21
2022-08-25T12:11:10.653Z,30.32
2022-08-25T12:13:43.236Z,30.38
2022-08-25T12:16:43.957Z,30.45
2022-08-25T12:19:28.032Z,30.33
2022-08-25T12:22:19.553Z,30.29
2022-08-25T12:24:54.950Z,30.20
2022-08-25T12:27:33.750Z,30.17
2022-08-25T12:30:06.817Z,30.20
2022-08-25T12:32:48.630Z,30.21
2022-08-25T12:35:32.293Z,30.29
2022-08-25T12:38:08.950Z,30.35
2022-08-25T12:40:40.585Z,30.36
2022-08-25T12:43:12.467Z,30.27
2022-08-25T12:45:44.724Z,30.17
2022-08-25T12:48:55.924Z,30.10
2022-08-25T12:51:26.844Z,30.12
2022-08-25T12:54:02.396Z,30.07
2022-08-25T12:56:39.545Z,30.06
2022-08-25T12:59:16.692Z,30.09
2022-08-25T13:02:03.084Z,30.19
2022-08-25T13:05:06.295Z,30.23
2022-08-25T13:08:15.337Z,30.32
2022-08-25T13:10:49.760Z,30.40
2022-08-25T13:13:32.457Z,30.37
2022-08-25T13:16:02.645Z,30.27
2022-08-25T13:18:33.078Z,30.38
2022-08-25T13:21:10.486Z,30.51
2022-08-25T13:23:41.834Z,30.69
2022-08-25T13:26:15.235Z,30.87
2022-08-25T13:28:50.388Z,30.93
2022-08-25T13:31:22.199Z,31.11
2022-08-25T13:33:55.884Z,31.00
2022-08-25T13:36:47.040Z,30.95
2022-08-25T13:39:45.730Z,30.96
2022-08-25T13:42:17.088Z,31.09
2022-08-25T13:44:52.456Z,31.32
2022-08-25T13:47:45.234Z,31.50
2022-08-25T13:50:36.725Z,31.66
2022-08-25T13:53:12.246Z,31.77
2022-08-25T13:55:52.260Z,31.72
2022-08-25T13:58:32.492Z,31.66
2022-08-25T14:01:22.903Z,31.76
2022-08-25T14:04:31.401Z,31.96
2022-08-25T14:07:26.880Z,31.88
2022-08-25T14:10:06.217Z,31.97
2022-08-25T14:12:38.018Z,32.12
2022-08-25T14:15:12.726Z,32.03
2022-08-25T14:17:43.531Z,32.06
2022-08-25T14:20:28.573Z,32.16
2022-08-25T14:22:59.481Z,31.99
2022-08-25T14:25:31.271Z,31.74
2022-08-25T14:28:09.108Z,31.43
2022-08-25T14:30:46.436Z,31.15
2022-08-25T14:33:16.519Z,30.87
2022-08-25T14:35:48.126Z,30.67
2022-08-25T14:38:18.123Z,30.52
2022-08-25T14:40:46.515Z,30.34
2022-08-25T14:43:15.880Z,30.15
2022-08-25T14:45:48.355Z,30.07
2022-08-25T14:48:25.241Z,29.98
2022-08-25T14:50:53.474Z,29.92
2022-08-25T14:53:21.560Z,29.87
2022-08-25T14:55:53.702Z,29.98
2022-08-25T14:58:27.417Z,30.12
2022-08-25T15:00:57.648Z,30.31
2022-08-25T15:03:31.721Z,30.39
2022-08-25T15:06:01.438Z,30.34
2022-08-25T15:08:47.330Z,30.26
2022-08-25T15:11:15.566Z,30.12
2022-08-25T15:13:49.373Z,30.00
2022-08-25T15:16:33.858Z,29.89
2022-08-25T15:19:06.626Z,29.75
2022-08-25T15:21:36.193Z,29.64
2022-08-25T15:24:04.954Z,29.54
2022-08-25T15:26:35.157Z,29.54
2022-08-25T15:29:04.768Z,29.64
2022-08-25T15:31:34.084Z,29.74
2022-08-25T15:34:02.018Z,29.86
2022-08-25T15:36:29.931Z,29.90
2022-08-25T15:38:57.926Z,30.00
2022-08-25T15:41:27.853Z,30.15
2022-08-25T15:43:56.609Z,30.26
2022-08-25T15:46:28.681Z,30.34
2022-08-25T15:48:59.691Z,30.40
2022-08-25T15:51:28.454Z,30.42
2022-08-25T15:53:56.665Z,30.44
2022-08-25T15:56:26.665Z,30.41
2022-08-25T15:58:55.593Z,30.36
2022-08-25T16:01:26.060Z,30.27
2022-08-25T16:03:58.276Z,30.21
2022-08-25T16:06:28.123Z,30.13
2022-08-25T16:08:56.129Z,30.00
2022-08-25T16:11:27.994Z,29.93
2022-08-25T16:13:58.725Z,29.82
2022-08-25T16:16:29.221Z,29.67
2022-08-25T16:18:57.713Z,29.55
2022-08-25T16:21:30.079Z,29.39
2022-08-25T16:24:02.584Z,29.28
2022-08-25T16:26:34.817Z,29.20
2022-08-25T16:29:02.720Z,29.15
2022-08-25T16:31:34.617Z,29.11
2022-08-25T16:34:02.837Z,29.07
2022-08-25T16:36:32.098Z,29.04
2022-08-25T16:39:00.973Z,29.01
2022-08-25T16:41:34.082Z,28.97
2022-08-25T16:44:03.286Z,28.92
2022-08-25T16:46:31.674Z,28.86
2022-08-25T16:49:02.958Z,28.80
2022-08-25T16:51:32.381Z,28.77
2022-08-25T16:54:22.272Z,28.75
2022-08-25T16:56:55.214Z,28.71
2022-08-25T16:59:23.864Z,28.65
2022-08-25T17:01:52.527Z,28.61
2022-08-25T17:04:21.032Z,28.57
2022-08-25T17:06:58.810Z,28.53
2022-08-25T17:09:26.691Z,28.48
2022-08-25T17:11:56.892Z,28.43
2022-08-25T17:14:25.336Z,28.39
2022-08-25T17:16:55.000Z,28.33
2022-08-25T17:19:24.965Z,28.30
2022-08-25T17:21:54.500Z,28.23
2022-08-25T17:24:29.299Z,28.16
2022-08-25T17:27:01.326Z,28.08
2022-08-25T17:29:29.605Z,28.02
2022-08-25T17:31:58.446Z,27.95
2022-08-25T17:34:27.887Z,27.85
2022-08-25T17:36:56.514Z,27.74
2022-08-25T17:39:26.759Z,27.66
2022-08-25T17:41:54.690Z,27.59
2022-08-25T17:44:22.583Z,27.51
2022-08-25T17:46:50.841Z,27.44
2022-08-25T17:49:19.819Z,27.37
2022-08-25T17:51:47.742Z,27.30
2022-08-25T17:54:15.665Z,27.25
2022-08-25T17:56:45.304Z,27.19
2022-08-25T17:59:14.094Z,27.11
2022-08-25T18:01:42.591Z,27.05
2022-08-25T18:04:17.161Z,26.97
2022-08-25T18:06:45.643Z,26.91
2022-08-25T18:09:13.627Z,26.84
2022-08-25T18:11:42.056Z,26.78
2022-08-25T18:14:12.598Z,26.70
2022-08-25T18:16:42.243Z,26.61
2022-08-25T18:19:10.755Z,26.51
2022-08-25T18:21:38.909Z,26.41
2022-08-25T18:24:08.105Z,26.32
2022-08-25T18:26:36.650Z,26.20
2022-08-25T18:29:05.226Z,26.08
2022-08-25T18:31:34.559Z,25.97
2022-08-25T18:34:04.985Z,25.86
2022-08-25T18:36:33.658Z,25.75
2022-08-25T18:39:25.090Z,25.62
2022-08-25T18:41:53.148Z,25.52
2022-08-25T18:44:21.820Z,25.43
2022-08-25T18:46:51.074Z,25.31
2022-08-25T18:49:22.433Z,25.18
2022-08-25T18:51:54.672Z,25.08
2022-08-25T18:54:23.071Z,24.98
2022-08-25T18:56:52.530Z,24.88
2022-08-25T18:59:23.813Z,24.78
2022-08-25T19:01:54.628Z,24.70
2022-08-25T19:04:28.686Z,24.61
2022-08-25T19:07:00.155Z,24.52
2022-08-25T19:09:28.062Z,24.45
2022-08-25T19:11:57.049Z,24.37
2022-08-25T19:14:26.319Z,24.32
2022-08-25T19:16:57.865Z,24.24
2022-08-25T19:19:26.198Z,24.18
2022-08-25T19:21:54.076Z,24.11
2022-08-25T19:24:22.049Z,24.04
2022-08-25T19:26:54.331Z,23.97
2022-08-25T19:29:24.107Z,23.89
2022-08-25T19:31:52.077Z,23.84
2022-08-25T19:34:27.984Z,23.78
2022-08-25T19:36:57.147Z,23.76
2022-08-25T19:39:27.408Z,23.72
2022-08-25T19:41:56.594Z,23.71
2022-08-25T19:44:26.137Z,23.68
2022-08-25T19:46:56.488Z,23.63
2022-08-25T19:49:34.304Z,23.59
2022-08-25T19:52:10.591Z,23.54
2022-08-25T19:54:44.490Z,23.49
2022-08-25T19:57:14.380Z,23.42
2022-08-25T19:59:57.315Z,23.35
2022-08-25T20:02:29.489Z,23.29
2022-08-25T20:05:00.412Z,23.23
2022-08-25T20:07:31.591Z,23.16
2022-08-25T20:10:01.441Z,23.11
2022-08-25T20:12:29.873Z,23.04
2022-08-25T20:14:57.804Z,23.01
2022-08-25T20:17:28.518Z,22.93
2022-08-25T20:20:00.548Z,22.85
2022-08-25T20:22:31.177Z,22.82
2022-08-25T20:24:59.948Z,22.76
2022-08-25T20:27:32.855Z,22.74
2022-08-25T20:30:02.795Z,22.72
2022-08-25T20:32:32.302Z,22.68
2022-08-25T20:35:01.895Z,22.61
2022-08-25T20:37:30.502Z,22.59
2022-08-25T20:39:59.170Z,22.57
2022-08-25T20:42:27.521Z,22.55
2022-08-25T20:44:55.649Z,22.52
2022-08-25T20:47:23.585Z,22.54
2022-08-25T20:49:51.450Z,22.53
2022-08-25T20:52:21.319Z,22.52
2022-08-25T20:54:51.044Z,22.50
2022-08-25T20:57:25.764Z,22.46
2022-08-25T20:59:55.103Z,22.42
2022-08-25T21:02:23.649Z,22.41
2022-08-25T21:04:52.197Z,22.42
2022-08-25T21:07:23.753Z,22.39
2022-08-25T21:09:52.367Z,22.39
2022-08-25T21:12:21.294Z,22.37
2022-08-25T21:14:49.285Z,22.37
2022-08-25T21:17:19.180Z,22.34
2022-08-25T21:22:22.310Z,22.29
2022-08-25T21:24:51.418Z,22.26
2022-08-25T21:27:19.329Z,22.26
2022-08-25T21:29:50.708Z,22.25
2022-08-25T21:32:22.316Z,22.25
2022-08-25T21:34:52.641Z,22.24
2022-08-25T21:37:23.679Z,22.23
2022-08-25T21:39:52.086Z,22.23
2022-08-25T21:42:20.286Z,22.21
2022-08-25T21:44:48.189Z,22.22
2022-08-25T21:47:16.072Z,22.21
2022-08-25T21:49:49.606Z,22.18
2022-08-25T21:52:17.796Z,22.16
2022-08-25T21:54:47.453Z,22.17
2022-08-25T21:57:17.878Z,22.19
2022-08-25T21:59:47.363Z,22.20
2022-08-25T22:06:37.078Z,22.17
2022-08-25T22:09:05.816Z,22.16
2022-08-25T22:11:34.049Z,22.16
2022-08-25T22:14:05.458Z,22.15
2022-08-25T22:16:35.895Z,22.12
2022-08-25T22:19:05.420Z,22.05
2022-08-25T22:21:35.522Z,22.00
2022-08-25T22:24:04.064Z,21.94
2022-08-25T22:26:33.624Z,21.90
2022-08-25T22:29:02.020Z,21.87
2022-08-25T22:31:30.541Z,21.85
2022-08-25T22:33:58.433Z,21.83
2022-08-25T22:36:30.707Z,21.82
2022-08-25T22:39:00.855Z,21.78
2022-08-25T22:41:31.487Z,21.76
2022-08-25T22:44:01.535Z,21.73
2022-08-25T22:46:33.627Z,21.69
2022-08-25T22:49:04.019Z,21.65
2022-08-25T22:51:32.089Z,21.63
2022-08-25T22:54:03.271Z,21.61
2022-08-25T22:56:34.907Z,21.62
2022-08-25T22:59:08.715Z,21.61
2022-08-25T23:01:37.845Z,21.59
2022-08-25T23:04:08.102Z,21.56
2022-08-25T23:06:36.269Z,21.54
2022-08-25T23:09:07.897Z,21.49
2022-08-25T23:11:38.728Z,21.46
2022-08-25T23:14:10.888Z,21.42
2022-08-25T23:16:38.960Z,21.38
2022-08-25T23:19:07.004Z,21.33
2022-08-25T23:21:53.231Z,21.31
2022-08-25T23:24:29.342Z,21.28
2022-08-25T23:26:58.447Z,21.25
2022-08-25T23:29:27.720Z,21.23
2022-08-25T23:31:56.606Z,21.17
2022-08-25T23:34:24.848Z,21.13
2022-08-25T23:36:53.332Z,21.09
2022-08-25T23:39:22.189Z,21.05
2022-08-25T23:41:52.068Z,21.01
2022-08-25T23:44:20.890Z,20.96
2022-08-25T23:46:48.951Z,20.92
2022-08-25T23:49:18.965Z,20.89
2022-08-25T23:51:48.865Z,20.85
2022-08-25T23:54:17.759Z,20.83
2022-08-25T23:56:52.413Z,20.81
2022-08-25T23:59:24.499Z,20.81
